Time;durP1;ratioP1;P1;durP2;ratioP2;P2;SDS_P1;SDS_P2;PMS_P1;PMS_P2;Temp;Humidity;BMP_temperature;BMP_pressure;BME280_temperature;BME280_humidity;BME280_pressure;Samples;Min_cycle;Max_cycle;Signal;HPM_P1;HPM_P2
2021/06/15 02:29:35;;;;;;;15.03;13.63;;;;;;;;;;5621879;23;20485;-90
2021/06/15 02:43:09;;;;;;;14.65;13.45;;;17.80;79.80;;;;;;5956343;23;20449;31
2021/06/15 03:12:10;;;;;;;18.40;16.70;;;18.00;94.60;;;;;;5933119;23;20596;-89
2021/06/15 03:17:12;;;;;;;20.27;18.17;;;;;;;;;;5234752;23;20543;-90
2021/06/15 03:19:55;;;;;;;21.10;19.10;;;18.10;90.80;;;;;;5198485;23;20610;-91
2021/06/15 03:33:08;;;;;;;22.57;20.17;;;18.40;92.50;;;;;;5080079;23;20478;-90
2021/06/15 03:35:41;;;;;;;18.30;16.33;;;18.50;92.10;;;;;;5185042;23;20468;-90
2021/06/15 03:38:12;;;;;;;21.57;19.50;;;18.50;91.90;;;;;;5027205;23;20568;-89
2021/06/15 03:40:42;;;;;;;26.90;24.27;;;18.50;74.40;;;;;;4943301;29;20427;-92
2021/06/15 03:43:09;;;;;;;28.20;25.20;;;18.50;74.70;;;;;;4942950;28;20435;-91
2021/06/15 03:45:50;;;;;;;27.97;24.90;;;18.70;91.80;;;;;;4943381;29;20408;-90
2021/06/15 03:48:20;;;;;;;26.93;23.63;;;18.20;79.20;;;;;;4942547;29;20430;-91
2021/06/15 03:50:49;;;;;;;26.83;23.97;;;;;;;;;;4960077;28;20475;-92
2021/06/15 03:53:19;;;;;;;25.63;22.60;;;18.70;75.90;;;;;;5071309;23;20488;-90
2021/06/15 03:58:21;;;;;;;26.10;23.43;;;18.80;74.30;;;;;;5060166;23;20521;-90
2021/06/15 04:00:52;;;;;;;18.70;16.90;;;18.90;73.30;;;;;;4962118;28;20435;-91
2021/06/15 04:08:29;;;;;;;25.43;22.87;;;18.90;73.40;;;;;;5186221;23;20522;-89
2021/06/15 04:13:30;;;;;;;29.40;25.87;;;19.10;84.50;;;;;;5184873;23;20523;-90
2021/06/15 04:16:01;;;;;;;26.63;24.03;;;19.10;72.80;;;;;;4942783;29;20436;-91
2021/06/15 04:24:06;;;;;;;26.97;23.60;;;19.00;73.70;;;;;;4167520;23;20502;-91
2021/06/15 04:26:35;;;;;;;23.60;21.10;;;;;;;;;;5080290;23;20493;-90
2021/06/15 04:29:11;;;;;;;22.83;20.60;;;19.20;71.70;;;;;;5269275;23;20475;-88
2021/06/15 04:31:40;;;;;;;21.70;19.60;;;19.10;70.60;;;;;;4938021;29;20482;-90
2021/06/15 04:34:10;;;;;;;21.53;19.33;;;23.40;79.50;;;;;;4938809;29;20438;-89
2021/06/15 04:36:38;;;;;;;21.30;17.77;;;19.20;69.80;;;;;;4941326;29;20404;-89
2021/06/15 04:41:42;;;;;;;19.20;17.10;;;19.20;70.70;;;;;;5100026;23;20490;-89
2021/06/15 04:44:24;;;;;;;18.40;16.50;;;19.40;68.40;;;;;;5315488;23;20424;-88
2021/06/15 04:49:35;;;;;;;17.57;16.03;;;19.50;68.60;;;;;;5343110;23;20471;-89
2021/06/15 05:00:09;;;;;;;16.93;15.43;;;19.90;66.00;;;;;;5088876;23;20473;-90
2021/06/15 05:02:43;;;;;;;16.27;14.77;;;20.20;84.90;;;;;;5148365;23;20469;-86
2021/06/15 05:05:12;;;;;;;17.20;15.53;;;22.20;71.40;;;;;;4979830;28;20444;-89
2021/06/15 05:08:05;;;;;;;19.00;15.70;;;19.50;68.50;;;;;;5331245;23;20702;31
2021/06/15 05:10:38;;;;;;;16.30;14.80;;;20.30;78.50;;;;;;4933764;29;20527;-91
2021/06/15 05:15:45;;;;;;;16.73;15.10;;;20.60;62.80;;;;;;5234460;23;20468;-89
2021/06/15 05:18:11;;;;;;;21.23;16.80;;;21.90;67.30;;;;;;4955189;28;20779;-89
2021/06/15 05:20:37;;;;;;;16.00;14.60;;;20.60;74.60;;;;;;5095402;23;20482;-93
2021/06/15 05:23:11;;;;;;;15.70;14.30;;;20.30;71.20;;;;;;4963548;28;20214;-88
2021/06/15 05:25:37;;;;;;;18.40;16.63;;;;;;;;;;4951085;29;20443;-91
2021/06/15 05:28:03;;;;;;;19.13;14.80;;;20.60;61.70;;;;;;4935068;29;20431;-88
2021/06/15 05:30:34;;;;;;;18.33;15.80;;;21.20;78.20;;;;;;4939743;29;20507;-91
2021/06/15 05:33:00;;;;;;;17.57;14.17;;;23.50;70.30;;;;;;4937961;29;20483;-93
2021/06/15 05:35:26;;;;;;;17.17;15.57;;;;;;;;;;4935732;29;20443;-89
2021/06/15 05:38:10;;;;;;;15.90;14.37;;;21.10;59.70;;;;;;4936919;29;20211;-93
2021/06/15 05:40:37;;;;;;;19.00;16.03;;;21.90;59.80;;;;;;5173636;23;20530;-92
2021/06/15 05:43:03;;;;;;;16.53;15.03;;;23.30;60.90;;;;;;4951263;29;20432;-90
2021/06/15 05:45:29;;;;;;;17.43;15.67;;;24.80;64.30;;;;;;4929551;29;20562;-92
2021/06/15 05:47:55;;;;;;;17.23;15.50;;;;;;;;;;4942475;29;20466;-89
2021/06/15 05:50:20;;;;;;;19.13;15.50;;;22.50;56.80;;;;;;4922846;29;20435;-90
2021/06/15 05:52:46;;;;;;;15.73;14.43;;;;;;;;;;4929976;29;20501;-92
2021/06/15 05:55:13;;;;;;;17.67;15.87;;;22.50;57.00;;;;;;4920223;29;20180;-91
2021/06/15 05:57:42;;;;;;;15.70;14.20;;;22.80;58.30;;;;;;4890383;29;20444;-87
2021/06/15 06:00:10;;;;;;;15.97;14.20;;;22.10;57.70;;;;;;4909618;29;20455;-90
2021/06/15 06:02:37;;;;;;;16.67;15.17;;;22.70;58.90;;;;;;4929088;29;20438;-90
2021/06/15 06:10:23;;;;;;;19.77;15.97;;;26.70;56.50;;;;;;4929151;29;20518;-91
2021/06/15 06:12:49;;;;;;;14.77;13.37;;;;;;;;;;4925496;29;20471;-90
2021/06/15 06:15:16;;;;;;;14.63;13.43;;;24.60;53.30;;;;;;4922951;29;20476;-91
2021/06/15 06:17:42;;;;;;;15.37;14.07;;;24.90;53.30;;;;;;4924667;29;20428;-90
2021/06/15 06:20:13;;;;;;;14.10;12.90;;;24.90;53.00;;;;;;4921883;29;20427;-89
2021/06/15 06:22:39;;;;;;;14.93;13.40;;;25.30;53.70;;;;;;4922629;29;20424;-90
2021/06/15 06:25:08;;;;;;;16.23;14.70;;;25.40;52.40;;;;;;4924231;29;20456;-90
2021/06/15 06:27:34;;;;;;;17.73;13.50;;;25.80;51.40;;;;;;4923338;29;20431;-90
2021/06/15 06:30:03;;;;;;;14.87;13.70;;;25.70;52.10;;;;;;4925471;29;20416;-90
2021/06/15 06:32:28;;;;;;;17.07;14.10;;;25.00;52.50;;;;;;4924976;29;20474;-89
2021/06/15 06:34:54;;;;;;;14.67;13.33;;;28.10;53.40;;;;;;4927251;29;20475;-91
2021/06/15 06:37:20;;;;;;;16.17;14.40;;;;;;;;;;4921932;29;20184;-91
2021/06/15 06:39:46;;;;;;;15.73;14.33;;;25.20;50.50;;;;;;4921785;29;20183;-89
2021/06/15 06:42:13;;;;;;;15.57;14.20;;;26.60;55.70;;;;;;4922355;29;20423;-91
2021/06/15 06:44:39;;;;;;;15.20;13.83;;;24.90;53.70;;;;;;4924949;29;20510;-91
2021/06/15 06:47:04;;;;;;;14.87;13.47;;;27.20;53.00;;;;;;4926145;29;20422;-90
2021/06/15 06:49:30;;;;;;;14.77;13.47;;;24.60;51.40;;;;;;4932007;29;20256;-91
2021/06/15 06:51:56;;;;;;;14.90;13.20;;;;;;;;;;4934534;29;20655;-89
2021/06/15 06:54:22;;;;;;;15.03;13.10;;;26.50;48.30;;;;;;4939901;29;20187;-92
2021/06/15 06:56:54;;;;;;;14.07;12.60;;;26.90;51.00;;;;;;4938035;29;20427;-91
2021/06/15 06:59:21;;;;;;;13.47;12.33;;;27.90;48.60;;;;;;4930335;29;20176;-88
2021/06/15 07:01:47;;;;;;;14.07;12.77;;;28.10;48.60;;;;;;4911300;29;20432;-91
2021/06/15 07:04:13;;;;;;;26.87;14.00;;;28.90;48.50;;;;;;4926466;29;20436;-86
2021/06/15 07:06:39;;;;;;;12.93;11.90;;;27.40;46.90;;;;;;4925693;29;20443;-93
2021/06/15 07:09:05;;;;;;;13.50;12.43;;;27.90;46.60;;;;;;4922535;29;20416;-92
2021/06/15 07:11:30;;;;;;;12.13;10.93;;;26.50;46.10;;;;;;4925494;29;20215;-92
2021/06/15 07:13:56;;;;;;;13.23;11.97;;;29.70;46.50;;;;;;4925913;29;20200;-91
2021/06/15 07:16:22;;;;;;;13.43;12.43;;;28.90;44.70;;;;;;4925440;29;20183;-92
2021/06/15 07:18:49;;;;;;;11.73;10.57;;;29.00;44.20;;;;;;4925984;29;20259;-92
2021/06/15 07:21:14;;;;;;;12.73;11.40;;;30.10;43.30;;;;;;4924388;29;20175;-91
2021/06/15 07:23:41;;;;;;;12.33;11.13;;;31.80;45.40;;;;;;4925328;29;20495;-90
2021/06/15 07:26:07;;;;;;;12.97;11.87;;;28.40;42.90;;;;;;4925961;29;20722;-87
2021/06/15 07:28:33;;;;;;;12.60;11.70;;;28.20;42.00;;;;;;4927846;29;20433;-88
2021/06/15 07:30:59;;;;;;;13.37;12.30;;;30.60;43.00;;;;;;4917675;29;20744;-89
2021/06/15 07:33:25;;;;;;;13.77;12.47;;;31.30;44.00;;;;;;4916938;29;20471;-91
2021/06/15 07:35:51;;;;;;;12.70;11.60;;;29.80;43.10;;;;;;4920078;29;20425;-89
2021/06/15 07:38:17;;;;;;;12.50;11.57;;;30.40;42.80;;;;;;4931631;29;20180;-91
2021/06/15 07:40:42;;;;;;;14.37;13.37;;;32.50;44.40;;;;;;4927363;29;20231;-92
2021/06/15 07:43:09;;;;;;;13.03;12.13;;;32.40;43.30;;;;;;4927444;29;20180;-92
2021/06/15 07:45:39;;;;;;;12.83;11.83;;;31.00;40.30;;;;;;4593516;29;10000500;-91
2021/06/15 07:48:05;;;;;;;12.13;11.23;;;34.90;42.00;;;;;;4926802;29;20431;-91
2021/06/15 07:50:32;;;;;;;13.27;12.13;;;31.30;40.10;;;;;;4927715;29;20411;-89
2021/06/15 07:52:58;;;;;;;14.10;12.90;;;32.00;40.50;;;;;;4926634;29;20439;-92
2021/06/15 07:55:23;;;;;;;12.67;11.50;;;31.60;39.80;;;;;;4944252;29;20423;-90
2021/06/15 07:57:49;;;;;;;10.77;10.07;;;32.30;41.70;;;;;;4927572;29;20187;-88
2021/06/15 08:00:19;;;;;;;10.77;9.80;;;33.40;41.00;;;;;;4928973;29;20189;-91
2021/06/15 08:02:47;;;;;;;10.43;9.60;;;32.20;40.70;;;;;;4929880;29;20181;-92
2021/06/15 08:05:14;;;;;;;10.97;10.27;;;32.90;39.00;;;;;;4932154;29;20463;-93
2021/06/15 08:07:40;;;;;;;10.07;9.37;;;33.00;40.60;;;;;;4932314;29;20507;-91
2021/06/15 08:10:07;;;;;;;10.73;9.90;;;31.50;40.00;;;;;;4913626;29;20431;-91
2021/06/15 08:12:33;;;;;;;11.33;10.40;;;31.60;39.10;;;;;;4927683;29;20511;-91
2021/06/15 08:14:59;;;;;;;10.20;9.33;;;32.70;38.60;;;;;;4923696;29;20433;-91
2021/06/15 08:17:24;;;;;;;11.23;9.73;;;31.50;39.10;;;;;;4923918;29;20242;-93
2021/06/15 08:19:51;;;;;;;11.23;10.30;;;33.30;39.60;;;;;;4952531;29;20449;-91
2021/06/15 08:22:17;;;;;;;8.83;8.10;;;31.50;39.90;;;;;;4960609;28;20179;-90
2021/06/15 08:24:43;;;;;;;9.03;8.40;;;33.30;38.60;;;;;;4931799;29;20823;-93
2021/06/15 08:27:08;;;;;;;9.70;8.73;;;32.00;39.00;;;;;;4940660;29;20469;-89
2021/06/15 08:29:36;;;;;;;10.70;10.00;;;32.30;37.20;;;;;;4940017;29;20538;-91
2021/06/15 08:32:03;;;;;;;11.40;10.40;;;31.90;39.60;;;;;;4940043;29;20475;-92
2021/06/15 08:34:29;;;;;;;10.97;10.07;;;31.10;39.90;;;;;;4942199;29;20434;-93
2021/06/15 08:36:55;;;;;;;9.40;8.50;;;30.60;38.50;;;;;;4922269;29;21094;-92
2021/06/15 08:39:21;;;;;;;9.10;8.23;;;31.60;38.20;;;;;;4938696;29;20315;-95
2021/06/15 08:41:46;;;;;;;9.60;8.80;;;32.30;37.80;;;;;;4924246;29;20510;-91
2021/06/15 08:44:12;;;;;;;9.80;8.90;;;32.70;37.40;;;;;;4950457;29;20235;-92
2021/06/15 08:46:38;;;;;;;7.70;7.23;;;32.80;35.80;;;;;;4932938;29;20240;-90
2021/06/15 08:49:06;;;;;;;8.60;7.90;;;32.90;36.40;;;;;;4949353;29;20430;-91
2021/06/15 08:51:32;;;;;;;7.00;6.70;;;32.80;35.70;;;;;;4943602;29;20471;-90
2021/06/15 08:54:06;;;;;;;8.70;8.10;;;32.40;35.70;;;;;;4943970;29;20415;-89
2021/06/15 08:56:34;;;;;;;7.30;6.70;;;32.00;36.30;;;;;;4949779;29;20649;-93
2021/06/15 08:59:20;;;;;;;7.13;6.63;;;32.50;35.40;;;;;;4942642;29;20430;-95
2021/06/15 09:01:52;;;;;;;9.90;6.73;;;32.30;36.30;;;;;;4955643;29;20446;-93
2021/06/15 09:04:24;;;;;;;4.73;4.53;;;33.70;36.60;;;;;;4937037;29;20499;-93
2021/06/15 09:07:13;;;;;;;6.60;6.10;;;34.60;35.20;;;;;;4954607;29;20408;-95
2021/06/15 09:12:20;;;;;;;7.70;7.00;;;32.90;34.60;;;;;;4696076;26;20498;-92
2021/06/15 09:14:56;;;;;;;8.60;8.00;;;33.90;35.20;;;;;;4950920;29;20455;-93
2021/06/15 09:17:25;;;;;;;7.67;7.10;;;32.90;33.60;;;;;;4951320;28;20422;-93
2021/06/15 09:19:51;;;;;;;6.20;5.90;;;34.40;34.60;;;;;;4936275;29;20423;-92
2021/06/15 09:22:32;;;;;;;6.80;6.40;;;33.20;32.30;;;;;;4939182;29;20949;-92
2021/06/15 09:24:58;;;;;;;6.00;5.70;;;34.80;32.70;;;;;;4957289;29;20165;-92
2021/06/15 09:27:33;;;;;;;5.37;5.00;;;34.60;31.50;;;;;;4957218;28;20843;-90
2021/06/15 09:30:01;;;;;;;4.93;4.47;;;34.00;32.80;;;;;;4941556;29;20426;-91
2021/06/15 09:32:41;;;;;;;3.60;3.40;;;32.70;32.80;;;;;;4941351;29;20475;-93
2021/06/15 09:35:18;;;;;;;3.17;3.13;;;33.50;33.60;;;;;;4920492;29;20561;-92
2021/06/15 09:37:57;;;;;;;5.20;4.80;;;34.40;33.30;;;;;;4920605;29;20440;-93
2021/06/15 09:40:31;;;;;;;4.87;4.57;;;33.50;31.90;;;;;;4937568;29;20519;-92
2021/06/15 09:43:10;;;;;;;4.17;4.03;;;33.90;31.40;;;;;;4939703;29;20423;-93
2021/06/15 09:45:41;;;;;;;6.80;4.20;;;33.10;31.90;;;;;;4920653;29;20493;-94
2021/06/15 09:48:37;;;;;;;8.67;7.37;;;32.40;31.40;;;;;;4922453;29;20467;-95
2021/06/15 09:51:12;;;;;;;9.50;5.90;;;32.60;32.50;;;;;;4937805;29;20470;-91
2021/06/15 09:53:40;;;;;;;4.17;3.87;;;34.40;32.20;;;;;;4919291;29;20436;-91
2021/06/15 09:56:08;;;;;;;6.90;6.53;;;32.80;31.30;;;;;;4919353;29;20420;-92
2021/06/15 09:58:48;;;;;;;4.37;4.17;;;33.40;31.80;;;;;;4920984;29;20427;-91
2021/06/15 10:01:28;;;;;;;2.20;2.20;;;34.20;30.70;;;;;;4945030;28;20409;-91
2021/06/15 10:04:12;;;;;;;4.73;4.43;;;;;;;;;;4941184;29;20422;-94
2021/06/15 10:06:44;;;;;;;3.63;3.17;;;36.10;29.20;;;;;;4959563;29;20410;-94
2021/06/15 10:09:10;;;;;;;3.33;3.33;;;36.90;28.90;;;;;;4941278;29;20914;-92
2021/06/15 10:11:36;;;;;;;2.80;2.70;;;36.90;28.40;;;;;;4938901;29;20572;-90
2021/06/15 10:14:03;;;;;;;3.23;2.40;;;37.00;27.70;;;;;;4957981;28;20166;-89
2021/06/15 10:16:29;;;;;;;4.00;3.70;;;36.30;27.50;;;;;;4940954;29;20465;-89
2021/06/15 10:19:00;;;;;;;6.40;5.60;;;35.30;28.10;;;;;;4936497;29;20491;-90
2021/06/15 10:21:27;;;;;;;5.30;4.97;;;34.10;29.10;;;;;;4927737;29;20787;-91
2021/06/15 10:23:53;;;;;;;12.80;9.80;;;33.50;29.70;;;;;;4925642;29;20415;-90
2021/06/15 10:26:50;;;;;;;4.20;3.90;;;32.50;31.00;;;;;;4936589;29;20423;-95
2021/06/15 10:29:16;;;;;;;3.87;3.40;;;32.90;32.50;;;;;;4957487;29;20219;-92
2021/06/15 10:31:44;;;;;;;3.20;3.13;;;33.00;31.10;;;;;;4933874;29;20517;-92
2021/06/15 10:34:11;;;;;;;3.93;3.77;;;33.30;31.00;;;;;;4926100;29;20447;-90
2021/06/15 10:36:46;;;;;;;4.43;4.03;;;34.30;32.10;;;;;;4927594;29;20747;-93
2021/06/15 10:39:38;;;;;;;4.90;4.57;;;32.20;30.40;;;;;;4931713;29;20544;-93
2021/06/15 10:42:15;;;;;;;3.10;3.00;;;33.50;31.10;;;;;;4948451;29;20423;-91
2021/06/15 10:45:21;;;;;;;4.13;3.83;;;35.80;33.00;;;;;;4921756;29;20445;-93
2021/06/15 10:48:09;;;;;;;3.83;3.63;;;35.10;30.00;;;;;;4953796;29;20428;-92
2021/06/15 10:53:17;;;;;;;4.23;3.93;;;35.50;29.10;;;;;;4982276;23;10002102;-94
2021/06/15 10:55:58;;;;;;;5.10;4.60;;;37.80;29.90;;;;;;4925732;29;20549;-94
2021/06/15 10:58:38;;;;;;;4.23;3.90;;;33.50;29.40;;;;;;4957601;28;20419;-92
2021/06/15 11:01:29;;;;;;;4.90;4.57;;;35.00;29.60;;;;;;4953187;29;20461;-93
2021/06/15 11:04:09;;;;;;;2.90;2.80;;;35.40;29.30;;;;;;4970402;28;20449;-94
2021/06/15 11:06:35;;;;;;;2.30;2.20;;;35.70;28.50;;;;;;4970458;28;20397;-93
2021/06/15 11:09:11;;;;;;;2.60;2.40;;;36.50;30.30;;;;;;4948831;29;20454;-94
2021/06/15 11:11:37;;;;;;;3.80;3.70;;;36.70;30.30;;;;;;4957366;29;20240;-93
2021/06/15 11:14:12;;;;;;;5.27;4.20;;;36.10;29.80;;;;;;4974616;28;20438;-94
2021/06/15 11:17:00;;;;;;;6.50;5.90;;;36.50;29.00;;;;;;4968824;28;20452;-95
2021/06/15 11:19:32;;;;;;;3.40;3.30;;;37.10;28.10;;;;;;4968508;28;20406;-93
2021/06/15 11:27:37;;;;;;;2.63;2.53;;;37.80;27.40;;;;;;5512114;23;20510;-93
2021/06/15 11:30:22;;;;;;;4.63;4.33;;;38.50;28.20;;;;;;4933025;29;20464;-93
2021/06/15 11:33:16;;;;;;;4.60;3.63;;;38.60;26.90;;;;;;5058986;23;20486;-94
2021/06/15 11:35:42;;;;;;;3.33;3.23;;;38.40;27.30;;;;;;4972622;29;20499;-91
2021/06/15 11:38:19;;;;;;;4.90;4.60;;;38.60;29.90;;;;;;4973631;28;20438;-91
2021/06/15 11:40:49;;;;;;;3.43;3.13;;;38.40;27.80;;;;;;4999809;23;20487;-93
2021/06/15 11:43:21;;;;;;;5.90;4.50;;;39.90;29.20;;;;;;4921515;29;20551;-95
2021/06/15 11:46:08;;;;;;;3.77;3.27;;;37.40;29.80;;;;;;4935569;29;20488;-94
2021/06/15 11:51:11;;;;;;;4.30;4.00;;;36.70;27.80;;;;;;5527660;23;20466;-92
2021/06/15 11:53:42;;;;;;;4.50;4.20;;;34.10;27.50;;;;;;4943148;29;20415;-94
2021/06/15 12:01:39;;;;;;;2.70;2.60;;;36.20;28.00;;;;;;3659830;23;20451;-93
2021/06/15 12:04:43;;;;;;;2.93;2.93;;;36.10;28.90;;;;;;4959885;28;20445;-95
2021/06/15 12:12:38;;;;;;;5.03;3.90;;;36.20;28.50;;;;;;5352691;23;20483;-93
2021/06/15 12:15:34;;;;;;;4.13;3.80;;;36.80;29.70;;;;;;4937971;29;20506;-94
2021/06/15 12:18:00;;;;;;;3.30;3.00;;;34.30;28.20;;;;;;4937797;29;20427;-94
2021/06/15 12:20:47;;;;;;;23.73;16.77;;;35.40;30.70;;;;;;4938389;29;20445;-95
2021/06/15 12:23:53;;;;;;;3.83;2.33;;;37.90;29.90;;;;;;5055352;23;20482;-94
2021/06/15 12:29:18;;;;;;;2.63;2.53;;;38.30;29.90;;;;;;4977618;28;20900;-95
2021/06/15 12:31:58;;;;;;;2.07;2.00;;;35.00;29.70;;;;;;5176940;23;20486;-95
2021/06/15 12:34:26;;;;;;;2.50;2.30;;;34.90;28.70;;;;;;4962535;23;20514;-91
2021/06/15 12:37:03;;;;;;;8.90;6.70;;;36.50;29.70;;;;;;5096725;23;20476;-92
2021/06/15 12:57:39;;;;;;;2.27;2.17;;;35.50;28.70;;;;;;3948413;23;20515;-92
2021/06/15 13:00:24;;;;;;;1.80;1.70;;;36.40;29.70;;;;;;4936219;29;20579;-95
2021/06/15 13:19:18;;;;;;;4.17;1.63;;;35.30;27.80;;;;;;5001025;23;20578;-95
2021/06/15 13:22:01;;;;;;;1.67;1.57;;;36.70;27.70;;;;;;4955152;23;20475;-94
2021/06/15 13:24:49;;;;;;;1.53;1.47;;;37.70;28.10;;;;;;4937756;28;20431;-94
2021/06/15 13:27:18;;;;;;;2.60;2.43;;;37.10;27.30;;;;;;5047214;23;20498;-94
2021/06/15 13:29:47;;;;;;;2.33;2.20;;;36.90;28.20;;;;;;4945845;29;20435;-93
2021/06/15 13:32:44;;;;;;;;;;;;;;;;;;;;;
2021/06/15 13:35:29;;;;;;;2.00;1.90;;;36.40;27.00;;;;;;4939109;29;20435;-94
2021/06/15 13:41:22;;;;;;;3.37;2.30;;;35.20;27.50;;;;;;5192041;23;20499;-93
2021/06/15 13:46:28;;;;;;;3.30;3.20;;;34.00;27.80;;;;;;4953149;23;20518;-94
2021/06/15 13:49:17;;;;;;;2.70;2.50;;;34.60;29.60;;;;;;4930618;29;20487;-95
2021/06/15 13:51:43;;;;;;;2.10;2.00;;;34.30;31.20;;;;;;4931663;29;20488;-92
2021/06/15 14:07:29;;;;;;;2.47;2.30;;;34.10;28.90;;;;;;4517514;23;20507;-94
2021/06/15 14:09:56;;;;;;;2.07;1.90;;;36.50;33.30;;;;;;4938106;29;20571;-92
2021/06/15 14:15:02;;;;;;;2.43;2.33;;;35.70;27.60;;;;;;5231177;23;20492;-93
2021/06/15 14:17:46;;;;;;;3.87;3.53;;;35.60;29.50;;;;;;4985534;28;20520;-95
2021/06/15 14:20:18;;;;;;;4.43;4.33;;;37.40;29.20;;;;;;5041843;23;20499;-92
2021/06/15 14:31:09;;;;;;;4.50;2.10;;;34.70;29.60;;;;;;5003872;23;20491;-94
2021/06/15 14:33:42;;;;;;;2.87;2.77;;;33.00;32.00;;;;;;4953855;29;20521;-94
2021/06/15 14:39:06;;;;;;;2.67;2.47;;;32.70;28.50;;;;;;4950478;28;20852;-96
2021/06/15 14:41:33;;;;;;;3.67;3.40;;;38.00;32.00;;;;;;4935705;29;20411;-96
2021/06/15 14:44:02;;;;;;;21.13;18.93;;;33.10;28.00;;;;;;4936881;29;20447;-94
2021/06/15 14:58:44;;;;;;;7.50;6.80;;;32.10;28.40;;;;;;1247561;23;20832;-91
2021/06/15 15:01:16;;;;;;;2.10;2.00;;;31.60;29.10;;;;;;4930169;29;20474;-95
2021/06/15 15:03:42;;;;;;;3.73;3.53;;;31.50;29.40;;;;;;4951832;29;20411;-93
2021/06/15 15:06:27;;;;;;;5.47;4.27;;;32.50;30.90;;;;;;4955647;29;20840;-96
2021/06/15 15:09:11;;;;;;;2.80;2.73;;;33.60;31.20;;;;;;5117576;23;20234;-93
2021/06/15 15:11:53;;;;;;;2.00;1.90;;;33.00;31.40;;;;;;4703004;23;10001580;-95
2021/06/15 15:14:18;;;;;;;2.10;2.00;;;34.70;38.80;;;;;;4940038;29;20456;-91
2021/06/15 15:16:46;;;;;;;2.47;2.37;;;32.20;33.00;;;;;;5170633;23;20463;-94
2021/06/15 15:19:29;;;;;;;5.43;5.00;;;31.00;31.10;;;;;;4935364;29;20179;-92
2021/06/15 15:22:00;;;;;;;8.50;3.53;;;30.30;30.90;;;;;;5061161;23;20413;-92
2021/06/15 15:24:27;;;;;;;3.77;2.00;;;32.50;32.00;;;;;;4959076;28;20430;-94
2021/06/15 15:26:57;;;;;;;2.23;2.13;;;29.10;32.00;;;;;;4940709;29;20501;-91
2021/06/15 15:29:24;;;;;;;5.40;3.30;;;31.20;35.10;;;;;;5109416;23;20523;-92
2021/06/15 15:34:56;;;;;;;4.00;3.40;;;26.20;29.20;;;;;;5062670;23;20501;-92
2021/06/15 15:37:30;;;;;;;2.20;1.90;;;35.10;38.00;;;;;;4956720;29;20438;-94
2021/06/15 15:40:06;;;;;;;2.27;2.17;;;28.60;30.10;;;;;;4972611;28;20438;-93
2021/06/15 15:42:36;;;;;;;2.30;1.90;;;29.20;31.90;;;;;;4955401;29;20957;-92
2021/06/15 15:45:28;;;;;;;11.73;10.57;;;31.30;32.80;;;;;;4958582;29;20494;-93
2021/06/15 15:47:59;;;;;;;3.93;2.80;;;28.70;30.10;;;;;;4958785;29;20414;-91
2021/06/15 15:50:33;;;;;;;2.93;2.70;;;29.10;31.50;;;;;;4943494;29;20438;-93
2021/06/15 15:53:10;;;;;;;3.70;3.40;;;32.10;32.40;;;;;;4960149;29;20450;-92
2021/06/15 15:55:58;;;;;;;1.90;1.80;;;28.80;32.30;;;;;;4942384;29;20438;-92
2021/06/15 15:58:28;;;;;;;2.23;2.13;;;31.50;36.40;;;;;;4958371;29;20574;-93
2021/06/15 16:01:16;;;;;;;9.17;3.07;;;29.30;36.00;;;;;;4958595;28;20451;-92
2021/06/15 16:03:45;;;;;;;6.10;2.20;;;28.80;31.10;;;;;;4943278;29;20430;-93
2021/06/15 16:06:29;;;;;;;2.87;2.60;;;28.40;31.50;;;;;;4940165;29;20424;-94
2021/06/15 16:08:57;;;;;;;4.00;1.70;;;28.20;41.00;;;;;;5273512;23;20536;-94
2021/06/15 16:11:23;;;;;;;4.70;2.57;;;28.70;31.70;;;;;;4961872;28;20469;-93
2021/06/15 16:13:54;;;;;;;3.00;2.80;;;28.30;33.00;;;;;;4976640;28;20984;-95
2021/06/15 16:16:22;;;;;;;3.33;2.20;;;29.90;35.40;;;;;;4973041;28;20178;-89
2021/06/15 16:18:48;;;;;;;2.50;2.30;;;30.90;34.90;;;;;;4976836;28;20437;-92
2021/06/15 16:21:15;;;;;;;3.47;3.20;;;29.10;37.70;;;;;;4988650;28;20482;-93
2021/06/15 16:23:42;;;;;;;2.97;2.70;;;28.40;32.30;;;;;;4973024;28;20189;-91
2021/06/15 16:26:08;;;;;;;3.97;3.40;;;29.50;37.60;;;;;;4980237;28;20456;-91
2021/06/15 16:28:57;;;;;;;5.10;4.10;;;29.70;36.40;;;;;;4998200;28;20437;-91
2021/06/15 16:31:23;;;;;;;3.43;2.13;;;31.80;33.60;;;;;;4965020;28;20976;-86
2021/06/15 16:33:49;;;;;;;2.23;2.10;;;30.00;33.10;;;;;;4976441;28;20422;-89
2021/06/15 16:36:14;;;;;;;2.90;2.80;;;28.60;33.30;;;;;;4975356;28;20181;-86
2021/06/15 16:38:40;;;;;;;3.33;2.60;;;28.10;32.60;;;;;;4975881;28;20799;-88
2021/06/15 16:41:05;;;;;;;2.47;2.30;;;28.90;33.00;;;;;;4958243;28;20174;-87
2021/06/15 16:43:31;;;;;;;2.90;2.70;;;28.70;33.40;;;;;;4975671;28;20169;-87
2021/06/15 16:45:56;;;;;;;23.90;21.73;;;27.90;32.50;;;;;;4975734;28;20177;-88
2021/06/15 16:48:22;;;;;;;5.43;2.80;;;29.40;32.80;;;;;;4975376;28;20170;-85
2021/06/15 16:50:48;;;;;;;2.73;2.47;;;29.80;33.20;;;;;;4975177;28;20166;-86
2021/06/15 16:53:13;;;;;;;6.03;2.70;;;30.20;32.80;;;;;;4975031;28;20264;-85
2021/06/15 16:55:39;;;;;;;2.83;2.60;;;27.80;32.20;;;;;;4974887;28;20224;-86
2021/06/15 16:58:05;;;;;;;3.67;2.13;;;28.50;32.30;;;;;;4975356;28;20177;-88
2021/06/15 17:00:31;;;;;;;2.33;2.13;;;29.40;33.40;;;;;;4957473;28;20166;-86
2021/06/15 17:02:57;;;;;;;4.20;2.70;;;28.60;32.60;;;;;;4975275;28;20405;-87
2021/06/15 17:05:22;;;;;;;2.50;2.30;;;29.30;33.20;;;;;;4976246;28;20410;-86
2021/06/15 17:07:48;;;;;;;2.20;1.90;;;28.50;32.90;;;;;;4967050;28;20173;-87
2021/06/15 17:10:18;;;;;;;5.37;3.20;;;27.20;32.30;;;;;;4954435;28;20704;-87
2021/06/15 17:12:44;;;;;;;4.63;2.80;;;29.40;34.00;;;;;;4957602;28;20214;-88
2021/06/15 17:15:12;;;;;;;4.43;2.60;;;27.70;32.40;;;;;;4974724;28;20413;-87
2021/06/15 17:17:38;;;;;;;2.90;2.57;;;28.70;33.10;;;;;;4975045;28;20819;-87
2021/06/15 17:20:05;;;;;;;4.17;2.97;;;28.50;33.20;;;;;;4957103;28;20882;-86
2021/06/15 17:22:31;;;;;;;3.23;3.00;;;28.60;33.30;;;;;;4974411;28;20424;-86
2021/06/15 17:24:56;;;;;;;4.33;2.10;;;27.70;33.10;;;;;;4974095;28;20410;-86
2021/06/15 17:27:22;;;;;;;2.83;2.73;;;28.30;33.40;;;;;;4975213;28;20170;-87
2021/06/15 17:29:48;;;;;;;2.87;2.70;;;28.80;33.80;;;;;;4956169;28;20272;-88
2021/06/15 17:32:13;;;;;;;3.60;2.07;;;29.70;34.50;;;;;;4974781;28;20206;-87
2021/06/15 17:34:39;;;;;;;3.10;2.90;;;29.70;34.60;;;;;;4974730;28;20185;-85
2021/06/15 17:37:05;;;;;;;5.00;4.57;;;27.00;33.50;;;;;;4974147;28;20174;-87
2021/06/15 17:39:30;;;;;;;3.13;2.50;;;27.80;34.60;;;;;;4973617;28;20177;-85
2021/06/15 17:41:56;;;;;;;5.47;3.23;;;27.70;34.80;;;;;;4974408;28;20170;-87
2021/06/15 17:44:21;;;;;;;3.60;3.40;;;26.40;33.80;;;;;;4974471;28;20174;-87
2021/06/15 17:46:47;;;;;;;23.77;21.87;;;27.00;34.20;;;;;;4956984;28;20174;-85
2021/06/15 17:49:13;;;;;;;2.77;2.57;;;27.60;34.80;;;;;;4974302;28;20188;-86
2021/06/15 17:51:38;;;;;;;2.60;2.50;;;26.90;34.20;;;;;;4974088;28;20205;-86
2021/06/15 17:54:05;;;;;;;2.73;2.13;;;28.60;35.70;;;;;;4956804;28;20181;-86
2021/06/15 17:56:33;;;;;;;2.70;2.50;;;27.40;35.20;;;;;;4973470;28;20173;-85
2021/06/15 17:58:59;;;;;;;4.57;3.53;;;27.20;35.40;;;;;;4973487;28;20483;-86
2021/06/15 18:01:25;;;;;;;3.80;2.67;;;27.00;35.50;;;;;;4973614;28;20422;-87
2021/06/15 18:03:54;;;;;;;2.37;2.23;;;27.50;35.60;;;;;;4955641;28;20224;-86
2021/06/15 18:06:24;;;;;;;2.63;2.30;;;26.40;35.20;;;;;;4974112;28;20181;-88
2021/06/15 18:09:03;;;;;;;3.70;2.97;;;26.60;35.00;;;;;;4973036;28;20487;-84
2021/06/15 18:11:34;;;;;;;3.73;3.43;;;27.00;35.60;;;;;;4973548;28;20493;-87
2021/06/15 18:13:59;;;;;;;2.83;2.63;;;28.20;36.30;;;;;;4956798;28;20504;-86
2021/06/15 18:16:25;;;;;;;4.27;3.87;;;26.90;35.80;;;;;;4974311;28;20800;-86
2021/06/15 18:18:51;;;;;;;10.73;9.90;;;26.20;36.10;;;;;;4973779;28;20180;-86
2021/06/15 18:21:16;;;;;;;2.53;2.43;;;26.20;35.60;;;;;;4613522;28;10000591;-87
2021/06/15 18:23:42;;;;;;;5.33;4.70;;;26.30;36.20;;;;;;4952327;29;20175;-87
2021/06/15 18:26:08;;;;;;;4.90;3.80;;;26.90;36.50;;;;;;4935123;29;20215;-86
2021/06/15 18:28:36;;;;;;;3.93;3.60;;;26.30;36.80;;;;;;4951960;29;20574;-87
2021/06/15 18:31:02;;;;;;;17.10;10.57;;;27.30;37.90;;;;;;4934448;29;20449;-84
2021/06/15 18:33:28;;;;;;;7.90;6.40;;;27.00;37.70;;;;;;4968648;28;20563;-88
2021/06/15 18:35:53;;;;;;;4.93;3.27;;;27.50;37.70;;;;;;4955838;28;20844;-85
2021/06/15 18:38:19;;;;;;;6.33;2.83;;;26.60;37.10;;;;;;4974150;28;20425;-87
2021/06/15 18:40:45;;;;;;;3.50;3.20;;;26.90;37.10;;;;;;4958240;28;20182;-86
2021/06/15 18:43:13;;;;;;;2.70;2.50;;;26.80;37.40;;;;;;4976246;28;20228;-86
2021/06/15 18:45:42;;;;;;;3.80;3.53;;;26.30;37.50;;;;;;4969869;28;20201;-87
2021/06/15 18:48:10;;;;;;;3.03;2.83;;;27.30;37.90;;;;;;4971161;28;20425;-86